sensor_id;sensor_type;location;lat;lon;timestamp;pressure;altitude;pressure_sealevel;temperature;humidity
27685;BME280;46113;50.130;8.526;2024-03-02T00:00:08;97950.16;;;-0.81;90.32
27685;BME280;46113;50.130;8.526;2024-03-02T00:02:43;97941.78;;;-0.91;90.57
27685;BME280;46113;50.130;8.526;2024-03-02T00:05:12;97939.19;;;-0.91;90.89
27685;BME280;46113;50.130;8.526;2024-03-02T00:07:41;97940.91;;;-0.90;90.27
27685;BME280;46113;50.130;8.526;2024-03-02T00:10:10;97945.16;;;-0.87;90.46
27685;BME280;46113;50.130;8.526;2024-03-02T00:12:39;97945.84;;;-0.82;90.37
27685;BME280;46113;50.130;8.526;2024-03-02T00:15:17;97946.69;;;-0.81;89.71
27685;BME280;46113;50.130;8.526;2024-03-02T00:17:53;97946.66;;;-0.80;90.18
27685;BME280;46113;50.130;8.526;2024-03-02T00:20:22;97954.41;;;-0.78;89.70
27685;BME280;46113;50.130;8.526;2024-03-02T00:22:50;97946.91;;;-0.87;90.52
27685;BME280;46113;50.130;8.526;2024-03-02T00:25:17;97952.88;;;-0.85;90.03
27685;BME280;46113;50.130;8.526;2024-03-02T00:27:47;97957.38;;;-0.91;90.63
27685;BME280;46113;50.130;8.526;2024-03-02T00:30:57;97959.88;;;-0.87;90.35
27685;BME280;46113;50.130;8.526;2024-03-02T00:33:26;97955.69;;;-0.92;90.29
27685;BME280;46113;50.130;8.526;2024-03-02T00:35:54;97952.03;;;-0.86;89.91
27685;BME280;46113;50.130;8.526;2024-03-02T00:38:21;97955.47;;;-0.85;90.36
27685;BME280;46113;50.130;8.526;2024-03-02T00:40:49;97951.19;;;-0.86;90.35
27685;BME280;46113;50.130;8.526;2024-03-02T00:46:16;97954.78;;;-0.91;90.28
27685;BME280;46113;50.130;8.526;2024-03-02T00:48:55;97964.72;;;-1.05;90.77
27685;BME280;46113;50.130;8.526;2024-03-02T00:51:24;97956.84;;;-1.02;90.38
27685;BME280;46113;50.130;8.526;2024-03-02T00:53:53;97958.47;;;-0.98;90.29
27685;BME280;46113;50.130;8.526;2024-03-02T00:56:23;97961.38;;;-1.09;90.24
27685;BME280;46113;50.130;8.526;2024-03-02T00:58:50;97953.63;;;-1.10;91.09
27685;BME280;46113;50.130;8.526;2024-03-02T01:01:18;97960.47;;;-1.08;91.05
27685;BME280;46113;50.130;8.526;2024-03-02T01:03:46;97954.34;;;-1.05;91.16
27685;BME280;46113;50.130;8.526;2024-03-02T01:06:13;97955.00;;;-0.98;90.95
27685;BME280;46113;50.130;8.526;2024-03-02T01:08:40;97953.28;;;-0.98;91.02
27685;BME280;46113;50.130;8.526;2024-03-02T01:11:06;97948.13;;;-0.99;90.96
27685;BME280;46113;50.130;8.526;2024-03-02T01:13:34;97947.75;;;-1.16;91.03
27685;BME280;46113;50.130;8.526;2024-03-02T01:16:01;97952.78;;;-1.09;91.09
27685;BME280;46113;50.130;8.526;2024-03-02T01:18:28;97947.69;;;-1.14;91.78
27685;BME280;46113;50.130;8.526;2024-03-02T01:20:55;97950.81;;;-1.03;90.99
27685;BME280;46113;50.130;8.526;2024-03-02T01:23:23;97949.31;;;-1.10;91.58
27685;BME280;46113;50.130;8.526;2024-03-02T01:25:51;97944.97;;;-1.09;91.55
27685;BME280;46113;50.130;8.526;2024-03-02T01:28:18;97943.88;;;-1.02;91.45
27685;BME280;46113;50.130;8.526;2024-03-02T01:30:47;97944.75;;;-1.01;90.97
27685;BME280;46113;50.130;8.526;2024-03-02T01:33:15;97943.88;;;-1.02;91.10
27685;BME280;46113;50.130;8.526;2024-03-02T01:35:42;97941.72;;;-1.16;91.86
27685;BME280;46113;50.130;8.526;2024-03-02T01:38:09;97935.88;;;-1.23;91.75
27685;BME280;46113;50.130;8.526;2024-03-02T01:40:36;97935.72;;;-1.18;92.07
27685;BME280;46113;50.130;8.526;2024-03-02T01:43:04;97939.13;;;-1.16;91.99
27685;BME280;46113;50.130;8.526;2024-03-02T01:45:31;97938.38;;;-1.20;92.03
27685;BME280;46113;50.130;8.526;2024-03-02T01:47:59;97924.22;;;-1.09;92.12
27685;BME280;46113;50.130;8.526;2024-03-02T01:50:27;97930.41;;;-1.13;92.28
27685;BME280;46113;50.130;8.526;2024-03-02T01:52:56;97931.94;;;-1.08;91.94
27685;BME280;46113;50.130;8.526;2024-03-02T01:55:22;97931.84;;;-1.33;92.94
27685;BME280;46113;50.130;8.526;2024-03-02T01:57:50;97937.88;;;-1.33;92.54
27685;BME280;46113;50.130;8.526;2024-03-02T02:00:21;97929.56;;;-1.16;92.03
27685;BME280;46113;50.130;8.526;2024-03-02T02:02:48;97938.19;;;-1.13;91.42
27685;BME280;46113;50.130;8.526;2024-03-02T02:05:15;97939.22;;;-1.19;91.80
27685;BME280;46113;50.130;8.526;2024-03-02T02:07:42;97936.59;;;-1.19;92.05
27685;BME280;46113;50.130;8.526;2024-03-02T02:10:12;97945.34;;;-1.22;91.71
27685;BME280;46113;50.130;8.526;2024-03-02T02:12:39;97930.16;;;-1.34;91.96
27685;BME280;46113;50.130;8.526;2024-03-02T02:15:29;97933.53;;;-1.32;91.85
27685;BME280;46113;50.130;8.526;2024-03-02T02:17:58;97926.56;;;-1.30;91.88
27685;BME280;46113;50.130;8.526;2024-03-02T02:20:25;97931.53;;;-1.22;92.32
27685;BME280;46113;50.130;8.526;2024-03-02T02:23:01;97932.31;;;-1.20;91.87
27685;BME280;46113;50.130;8.526;2024-03-02T02:25:29;97931.78;;;-1.30;92.53
27685;BME280;46113;50.130;8.526;2024-03-02T02:27:57;97931.63;;;-1.25;91.83
27685;BME280;46113;50.130;8.526;2024-03-02T02:30:26;97924.53;;;-1.20;92.10
27685;BME280;46113;50.130;8.526;2024-03-02T02:32:53;97919.25;;;-1.17;92.16
27685;BME280;46113;50.130;8.526;2024-03-02T02:35:20;97917.72;;;-1.24;91.88
27685;BME280;46113;50.130;8.526;2024-03-02T02:37:47;97915.75;;;-1.16;92.29
27685;BME280;46113;50.130;8.526;2024-03-02T02:40:16;97914.78;;;-1.12;92.81
27685;BME280;46113;50.130;8.526;2024-03-02T02:42:42;97911.94;;;-1.04;92.02
27685;BME280;46113;50.130;8.526;2024-03-02T02:45:09;97907.69;;;-1.07;92.27
27685;BME280;46113;50.130;8.526;2024-03-02T02:47:38;97906.91;;;-1.10;92.49
27685;BME280;46113;50.130;8.526;2024-03-02T02:50:07;97902.41;;;-1.05;92.37
27685;BME280;46113;50.130;8.526;2024-03-02T02:52:34;97905.84;;;-1.03;92.20
27685;BME280;46113;50.130;8.526;2024-03-02T02:55:04;97892.97;;;-1.08;92.23
27685;BME280;46113;50.130;8.526;2024-03-02T02:57:34;97890.03;;;-1.24;92.81
27685;BME280;46113;50.130;8.526;2024-03-02T03:00:07;97894.50;;;-1.27;92.85
27685;BME280;46113;50.130;8.526;2024-03-02T03:02:41;97890.53;;;-1.12;92.75
27685;BME280;46113;50.130;8.526;2024-03-02T03:05:09;97883.72;;;-1.15;92.75
27685;BME280;46113;50.130;8.526;2024-03-02T03:07:37;97886.25;;;-1.13;93.47
27685;BME280;46113;50.130;8.526;2024-03-02T03:10:06;97880.78;;;-1.04;92.69
27685;BME280;46113;50.130;8.526;2024-03-02T03:12:34;97885.91;;;-1.03;92.71
27685;BME280;46113;50.130;8.526;2024-03-02T03:15:03;97886.75;;;-1.02;92.90
27685;BME280;46113;50.130;8.526;2024-03-02T03:17:31;97884.16;;;-1.02;93.18
27685;BME280;46113;50.130;8.526;2024-03-02T03:19:58;97890.97;;;-0.98;93.08
27685;BME280;46113;50.130;8.526;2024-03-02T03:22:25;97888.56;;;-1.04;92.66
27685;BME280;46113;50.130;8.526;2024-03-02T03:24:51;97881.72;;;-1.07;92.93
27685;BME280;46113;50.130;8.526;2024-03-02T03:27:18;97887.75;;;-1.06;92.96
27685;BME280;46113;50.130;8.526;2024-03-02T03:29:46;97883.47;;;-1.07;93.04
27685;BME280;46113;50.130;8.526;2024-03-02T03:32:13;97885.84;;;-1.01;92.61
27685;BME280;46113;50.130;8.526;2024-03-02T03:34:40;97886.25;;;-1.13;92.71
27685;BME280;46113;50.130;8.526;2024-03-02T03:37:07;97889.81;;;-1.16;92.89
27685;BME280;46113;50.130;8.526;2024-03-02T03:39:34;97881.34;;;-1.23;93.07
27685;BME280;46113;50.130;8.526;2024-03-02T03:42:03;97884.03;;;-1.26;93.40
27685;BME280;46113;50.130;8.526;2024-03-02T03:44:30;97887.50;;;-1.25;93.21
27685;BME280;46113;50.130;8.526;2024-03-02T03:46:56;97885.13;;;-1.33;93.63
27685;BME280;46113;50.130;8.526;2024-03-02T03:49:23;97882.34;;;-1.27;93.33
27685;BME280;46113;50.130;8.526;2024-03-02T03:51:50;97887.84;;;-1.38;92.53
27685;BME280;46113;50.130;8.526;2024-03-02T03:54:17;97889.47;;;-1.34;92.53
27685;BME280;46113;50.130;8.526;2024-03-02T03:56:43;97894.06;;;-1.42;92.87
27685;BME280;46113;50.130;8.526;2024-03-02T03:59:10;97886.50;;;-1.50;93.21
27685;BME280;46113;50.130;8.526;2024-03-02T04:01:37;97892.69;;;-1.54;92.77
27685;BME280;46113;50.130;8.526;2024-03-02T04:04:04;97892.53;;;-1.49;93.33
27685;BME280;46113;50.130;8.526;2024-03-02T04:06:31;97885.56;;;-1.47;92.51
27685;BME280;46113;50.130;8.526;2024-03-02T04:08:58;97887.50;;;-1.54;92.43
27685;BME280;46113;50.130;8.526;2024-03-02T04:11:25;97889.47;;;-1.62;92.64
27685;BME280;46113;50.130;8.526;2024-03-02T04:13:52;97884.47;;;-1.69;92.01
27685;BME280;46113;50.130;8.526;2024-03-02T04:16:21;97888.03;;;-1.73;92.63
27685;BME280;46113;50.130;8.526;2024-03-02T04:18:48;97888.41;;;-1.85;92.24
27685;BME280;46113;50.130;8.526;2024-03-02T04:21:15;97882.63;;;-1.95;92.76
27685;BME280;46113;50.130;8.526;2024-03-02T04:23:41;97888.69;;;-1.96;93.29
27685;BME280;46113;50.130;8.526;2024-03-02T04:26:08;97889.59;;;-1.97;92.55
27685;BME280;46113;50.130;8.526;2024-03-02T04:28:35;97886.19;;;-1.99;92.84
27685;BME280;46113;50.130;8.526;2024-03-02T04:31:02;97892.31;;;-2.02;92.26
27685;BME280;46113;50.130;8.526;2024-03-02T04:33:29;97886.16;;;-1.98;92.00
27685;BME280;46113;50.130;8.526;2024-03-02T04:35:55;97896.41;;;-1.93;92.14
27685;BME280;46113;50.130;8.526;2024-03-02T04:38:22;97904.97;;;-1.91;92.60
27685;BME280;46113;50.130;8.526;2024-03-02T04:40:49;97905.06;;;-1.94;92.66
27685;BME280;46113;50.130;8.526;2024-03-02T04:43:16;97905.91;;;-1.93;92.27
27685;BME280;46113;50.130;8.526;2024-03-02T04:45:43;97900.66;;;-1.90;92.11
27685;BME280;46113;50.130;8.526;2024-03-02T04:48:09;97905.91;;;-1.93;91.58
27685;BME280;46113;50.130;8.526;2024-03-02T04:50:36;97899.22;;;-2.01;91.46
27685;BME280;46113;50.130;8.526;2024-03-02T04:53:03;97908.88;;;-2.06;91.96
27685;BME280;46113;50.130;8.526;2024-03-02T04:55:30;97898.34;;;-2.01;92.07
27685;BME280;46113;50.130;8.526;2024-03-02T04:58:02;97898.31;;;-2.00;91.29
27685;BME280;46113;50.130;8.526;2024-03-02T05:00:29;97893.16;;;-2.01;91.90
27685;BME280;46113;50.130;8.526;2024-03-02T05:02:56;97898.28;;;-1.98;92.48
27685;BME280;46113;50.130;8.526;2024-03-02T05:05:22;97897.41;;;-1.99;91.95
27685;BME280;46113;50.130;8.526;2024-03-02T05:07:49;97893.75;;;-1.91;92.02
27685;BME280;46113;50.130;8.526;2024-03-02T05:10:16;97892.03;;;-1.92;91.85
27685;BME280;46113;50.130;8.526;2024-03-02T05:12:43;97904.22;;;-1.94;93.00
27685;BME280;46113;50.130;8.526;2024-03-02T05:15:11;97899.88;;;-1.94;91.72
27685;BME280;46113;50.130;8.526;2024-03-02T05:17:40;97910.63;;;-2.08;91.66
27685;BME280;46113;50.130;8.526;2024-03-02T05:20:07;97914.09;;;-2.07;92.62
27685;BME280;46113;50.130;8.526;2024-03-02T05:22:35;97904.72;;;-2.13;91.37
27685;BME280;46113;50.130;8.526;2024-03-02T05:25:02;97909.91;;;-2.13;92.34
27685;BME280;46113;50.130;8.526;2024-03-02T05:27:29;97913.97;;;-2.04;92.25
27685;BME280;46113;50.130;8.526;2024-03-02T05:29:56;97919.00;;;-1.98;92.01
27685;BME280;46113;50.130;8.526;2024-03-02T05:32:24;97921.59;;;-1.98;91.73
27685;BME280;46113;50.130;8.526;2024-03-02T05:34:51;97922.81;;;-2.12;92.46
27685;BME280;46113;50.130;8.526;2024-03-02T05:37:18;97922.78;;;-2.10;92.10
27685;BME280;46113;50.130;8.526;2024-03-02T05:39:44;97924.03;;;-2.25;92.37
27685;BME280;46113;50.130;8.526;2024-03-02T05:42:11;97922.91;;;-2.15;91.86
27685;BME280;46113;50.130;8.526;2024-03-02T05:44:38;97930.56;;;-2.10;92.13
27685;BME280;46113;50.130;8.526;2024-03-02T05:47:05;97928.78;;;-2.08;91.80
27685;BME280;46113;50.130;8.526;2024-03-02T05:49:34;97931.75;;;-2.22;91.66
27685;BME280;46113;50.130;8.526;2024-03-02T05:52:01;97931.53;;;-2.14;92.21
27685;BME280;46113;50.130;8.526;2024-03-02T05:54:27;97932.69;;;-2.25;92.12
27685;BME280;46113;50.130;8.526;2024-03-02T05:56:55;97935.31;;;-2.26;91.82
27685;BME280;46113;50.130;8.526;2024-03-02T05:59:21;97933.25;;;-2.15;91.85
27685;BME280;46113;50.130;8.526;2024-03-02T06:01:48;97933.63;;;-2.29;91.28
27685;BME280;46113;50.130;8.526;2024-03-02T06:04:18;97938.78;;;-2.27;91.35
27685;BME280;46113;50.130;8.526;2024-03-02T06:06:45;97937.91;;;-2.26;90.80
27685;BME280;46113;50.130;8.526;2024-03-02T06:09:12;97941.25;;;-2.23;91.86
27685;BME280;46113;50.130;8.526;2024-03-02T06:11:40;97943.84;;;-2.23;92.17
27685;BME280;46113;50.130;8.526;2024-03-02T06:14:08;97943.72;;;-2.18;92.58
27685;BME280;46113;50.130;8.526;2024-03-02T06:16:35;97947.16;;;-2.17;92.56
27685;BME280;46113;50.130;8.526;2024-03-02T06:19:02;97941.88;;;-2.13;92.69
27685;BME280;46113;50.130;8.526;2024-03-02T06:21:29;97946.16;;;-2.12;92.12
27685;BME280;46113;50.130;8.526;2024-03-02T06:23:56;97949.66;;;-2.13;92.00
27685;BME280;46113;50.130;8.526;2024-03-02T06:26:23;97947.78;;;-2.07;91.72
27685;BME280;46113;50.130;8.526;2024-03-02T06:28:52;97949.25;;;-1.99;91.68
27685;BME280;46113;50.130;8.526;2024-03-02T06:31:19;97957.91;;;-1.98;91.93
27685;BME280;46113;50.130;8.526;2024-03-02T06:33:45;97948.97;;;-1.88;92.13
27685;BME280;46113;50.130;8.526;2024-03-02T06:36:12;97960.50;;;-1.98;91.67
27685;BME280;46113;50.130;8.526;2024-03-02T06:38:39;97966.63;;;-2.01;91.99
27685;BME280;46113;50.130;8.526;2024-03-02T06:41:09;97967.16;;;-1.89;91.06
27685;BME280;46113;50.130;8.526;2024-03-02T06:43:36;97973.84;;;-1.80;90.60
27685;BME280;46113;50.130;8.526;2024-03-02T06:46:03;97963.53;;;-1.84;90.86
27685;BME280;46113;50.130;8.526;2024-03-02T06:48:29;97963.06;;;-1.66;90.72
27685;BME280;46113;50.130;8.526;2024-03-02T06:50:57;97971.75;;;-1.67;90.31
27685;BME280;46113;50.130;8.526;2024-03-02T06:53:25;97976.63;;;-1.57;90.10
27685;BME280;46113;50.130;8.526;2024-03-02T06:55:52;97979.53;;;-1.67;90.35
27685;BME280;46113;50.130;8.526;2024-03-02T06:58:18;97985.81;;;-1.76;90.21
27685;BME280;46113;50.130;8.526;2024-03-02T07:00:45;97981.56;;;-1.79;90.33
27685;BME280;46113;50.130;8.526;2024-03-02T07:03:12;97982.28;;;-1.74;89.89
27685;BME280;46113;50.130;8.526;2024-03-02T07:05:39;97972.91;;;-1.48;89.97
27685;BME280;46113;50.130;8.526;2024-03-02T07:08:06;97966.97;;;-1.51;89.46
27685;BME280;46113;50.130;8.526;2024-03-02T07:10:33;97972.03;;;-1.47;89.08
27685;BME280;46113;50.130;8.526;2024-03-02T07:12:59;97974.72;;;-1.50;90.01
27685;BME280;46113;50.130;8.526;2024-03-02T07:15:26;97972.72;;;-1.11;89.40
27685;BME280;46113;50.130;8.526;2024-03-02T07:17:53;97977.91;;;-1.11;89.15
27685;BME280;46113;50.130;8.526;2024-03-02T07:20:20;97974.94;;;-0.99;88.28
27685;BME280;46113;50.130;8.526;2024-03-02T07:22:47;97972.16;;;-0.93;88.93
27685;BME280;46113;50.130;8.526;2024-03-02T07:25:14;97974.34;;;-0.80;88.43
27685;BME280;46113;50.130;8.526;2024-03-02T07:27:44;97980.53;;;-1.13;88.27
27685;BME280;46113;50.130;8.526;2024-03-02T07:30:14;97972.03;;;-0.61;88.64
27685;BME280;46113;50.130;8.526;2024-03-02T07:32:42;97967.47;;;-0.54;87.77
27685;BME280;46113;50.130;8.526;2024-03-02T07:35:15;97969.22;;;-0.55;88.38
27685;BME280;46113;50.130;8.526;2024-03-02T07:37:42;97969.25;;;-0.29;87.43
27685;BME280;46113;50.130;8.526;2024-03-02T07:40:10;97976.78;;;-0.21;87.97
27685;BME280;46113;50.130;8.526;2024-03-02T07:42:40;97980.94;;;-0.41;89.22
27685;BME280;46113;50.130;8.526;2024-03-02T07:45:08;97983.84;;;-0.25;88.62
27685;BME280;46113;50.130;8.526;2024-03-02T07:47:35;97988.31;;;-0.29;88.59
27685;BME280;46113;50.130;8.526;2024-03-02T07:50:02;97982.81;;;-0.19;87.96
27685;BME280;46113;50.130;8.526;2024-03-02T07:52:29;97988.16;;;0.01;86.72
27685;BME280;46113;50.130;8.526;2024-03-02T07:54:56;97987.66;;;0.15;86.54
27685;BME280;46113;50.130;8.526;2024-03-02T07:57:23;97985.06;;;0.15;86.66
27685;BME280;46113;50.130;8.526;2024-03-02T07:59:50;97982.31;;;-0.05;86.94
27685;BME280;46113;50.130;8.526;2024-03-02T08:02:20;97979.44;;;0.02;86.98
27685;BME280;46113;50.130;8.526;2024-03-02T08:04:46;97991.16;;;0.40;86.97
27685;BME280;46113;50.130;8.526;2024-03-02T08:07:13;97980.53;;;0.46;85.96
27685;BME280;46113;50.130;8.526;2024-03-02T08:09:40;97986.19;;;0.57;86.02
27685;BME280;46113;50.130;8.526;2024-03-02T08:12:07;97988.63;;;0.38;87.19
27685;BME280;46113;50.130;8.526;2024-03-02T08:14:34;97987.56;;;0.66;87.34
27685;BME280;46113;50.130;8.526;2024-03-02T08:17:00;97988.81;;;0.80;86.62
27685;BME280;46113;50.130;8.526;2024-03-02T08:19:28;97984.53;;;0.79;87.26
27685;BME280;46113;50.130;8.526;2024-03-02T08:21:55;97983.94;;;1.18;86.74
27685;BME280;46113;50.130;8.526;2024-03-02T08:24:22;97981.44;;;1.15;85.79
27685;BME280;46113;50.130;8.526;2024-03-02T08:26:49;97979.00;;;1.11;86.31
27685;BME280;46113;50.130;8.526;2024-03-02T08:29:16;97975.41;;;1.13;86.54
27685;BME280;46113;50.130;8.526;2024-03-02T08:31:43;97982.78;;;1.02;87.26
27685;BME280;46113;50.130;8.526;2024-03-02T08:34:10;97967.19;;;1.24;88.05
27685;BME280;46113;50.130;8.526;2024-03-02T08:36:37;97985.81;;;1.58;86.96
27685;BME280;46113;50.130;8.526;2024-03-02T08:39:04;97974.75;;;1.94;86.33
27685;BME280;46113;50.130;8.526;2024-03-02T08:41:34;97979.19;;;1.92;85.94
27685;BME280;46113;50.130;8.526;2024-03-02T08:44:00;97979.78;;;1.99;85.10
27685;BME280;46113;50.130;8.526;2024-03-02T08:46:27;97979.22;;;2.11;84.95
27685;BME280;46113;50.130;8.526;2024-03-02T08:48:55;97990.22;;;2.39;84.24
27685;BME280;46113;50.130;8.526;2024-03-02T08:51:22;97987.28;;;2.47;84.26
27685;BME280;46113;50.130;8.526;2024-03-02T08:53:48;97998.56;;;2.47;83.78
27685;BME280;46113;50.130;8.526;2024-03-02T08:56:15;97996.09;;;2.44;83.37
27685;BME280;46113;50.130;8.526;2024-03-02T08:58:43;97996.91;;;2.85;82.96
27685;BME280;46113;50.130;8.526;2024-03-02T09:01:10;98000.50;;;2.82;82.65
27685;BME280;46113;50.130;8.526;2024-03-02T09:03:37;98000.03;;;3.30;81.87
27685;BME280;46113;50.130;8.526;2024-03-02T09:06:04;98000.19;;;3.64;81.66
27685;BME280;46113;50.130;8.526;2024-03-02T09:08:31;97997.50;;;3.65;81.62
27685;BME280;46113;50.130;8.526;2024-03-02T09:10:59;97993.28;;;3.98;80.29
27685;BME280;46113;50.130;8.526;2024-03-02T09:13:26;97991.78;;;4.27;78.13
27685;BME280;46113;50.130;8.526;2024-03-02T09:15:52;97987.88;;;4.52;76.83
27685;BME280;46113;50.130;8.526;2024-03-02T09:18:19;97990.69;;;4.65;74.92
27685;BME280;46113;50.130;8.526;2024-03-02T09:20:46;97985.69;;;4.77;75.17
27685;BME280;46113;50.130;8.526;2024-03-02T09:23:13;97985.88;;;5.22;72.23
27685;BME280;46113;50.130;8.526;2024-03-02T09:25:40;97989.69;;;5.00;73.93
27685;BME280;46113;50.130;8.526;2024-03-02T09:28:06;97991.72;;;5.11;74.65
27685;BME280;46113;50.130;8.526;2024-03-02T09:30:34;97981.66;;;5.19;73.92
27685;BME280;46113;50.130;8.526;2024-03-02T09:33:01;97992.22;;;5.34;73.89
27685;BME280;46113;50.130;8.526;2024-03-02T09:35:31;97989.16;;;5.42;71.01
27685;BME280;46113;50.130;8.526;2024-03-02T09:37:57;97986.47;;;5.43;70.45
27685;BME280;46113;50.130;8.526;2024-03-02T09:40:25;97983.56;;;5.32;71.27
27685;BME280;46113;50.130;8.526;2024-03-02T09:42:52;97988.94;;;4.98;70.36
27685;BME280;46113;50.130;8.526;2024-03-02T09:45:24;97993.91;;;5.03;71.88
27685;BME280;46113;50.130;8.526;2024-03-02T09:47:54;97982.25;;;5.25;70.64
27685;BME280;46113;50.130;8.526;2024-03-02T09:50:21;97982.72;;;5.48;71.40
27685;BME280;46113;50.130;8.526;2024-03-02T09:52:48;97981.97;;;5.29;71.15
27685;BME280;46113;50.130;8.526;2024-03-02T09:55:16;97975.53;;;5.35;70.32
27685;BME280;46113;50.130;8.526;2024-03-02T09:57:46;97983.56;;;5.32;71.13
27685;BME280;46113;50.130;8.526;2024-03-02T10:00:13;97984.41;;;5.49;69.73
27685;BME280;46113;50.130;8.526;2024-03-02T10:02:42;97986.44;;;5.59;70.13
27685;BME280;46113;50.130;8.526;2024-03-02T10:05:09;97986.56;;;5.72;69.63
27685;BME280;46113;50.130;8.526;2024-03-02T10:07:36;97980.41;;;5.88;68.96
27685;BME280;46113;50.130;8.526;2024-03-02T10:10:13;97991.31;;;5.96;68.39
27685;BME280;46113;50.130;8.526;2024-03-02T10:12:41;97982.50;;;5.97;68.38
27685;BME280;46113;50.130;8.526;2024-03-02T10:15:08;97971.91;;;5.99;65.76
27685;BME280;46113;50.130;8.526;2024-03-02T10:17:38;97975.31;;;6.16;66.60
27685;BME280;46113;50.130;8.526;2024-03-02T10:20:24;97970.56;;;5.92;67.49
27685;BME280;46113;50.130;8.526;2024-03-02T10:22:52;97971.53;;;5.91;67.36
27685;BME280;46113;50.130;8.526;2024-03-02T10:25:29;97973.16;;;5.63;67.36
27685;BME280;46113;50.130;8.526;2024-03-02T10:28:13;97962.41;;;5.82;68.52
27685;BME280;46113;50.130;8.526;2024-03-02T10:30:39;97963.88;;;5.71;69.21
27685;BME280;46113;50.130;8.526;2024-03-02T10:33:06;97967.63;;;5.98;67.58
27685;BME280;46113;50.130;8.526;2024-03-02T10:35:38;97958.72;;;5.70;68.20
27685;BME280;46113;50.130;8.526;2024-03-02T10:38:05;97972.38;;;5.61;68.73
27685;BME280;46113;50.130;8.526;2024-03-02T10:40:33;97960.69;;;5.66;68.06
27685;BME280;46113;50.130;8.526;2024-03-02T10:43:01;97965.63;;;5.87;66.01
27685;BME280;46113;50.130;8.526;2024-03-02T10:45:31;97956.88;;;5.86;67.29
27685;BME280;46113;50.130;8.526;2024-03-02T10:48:00;97960.19;;;6.05;65.53
27685;BME280;46113;50.130;8.526;2024-03-02T10:50:28;97960.41;;;6.16;65.16
27685;BME280;46113;50.130;8.526;2024-03-02T10:52:57;97953.97;;;5.77;66.49
27685;BME280;46113;50.130;8.526;2024-03-02T10:55:23;97960.31;;;6.03;65.80
27685;BME280;46113;50.130;8.526;2024-03-02T10:57:52;97947.72;;;5.94;64.85
27685;BME280;46113;50.130;8.526;2024-03-02T11:00:23;97947.63;;;5.81;64.56
27685;BME280;46113;50.130;8.526;2024-03-02T11:02:58;97950.72;;;6.02;63.68
27685;BME280;46113;50.130;8.526;2024-03-02T11:05:34;97943.97;;;6.27;61.66
27685;BME280;46113;50.130;8.526;2024-03-02T11:08:04;97940.34;;;6.15;62.25
27685;BME280;46113;50.130;8.526;2024-03-02T11:10:51;97939.19;;;6.34;61.47
27685;BME280;46113;50.130;8.526;2024-03-02T11:13:24;97938.09;;;6.23;59.65
27685;BME280;46113;50.130;8.526;2024-03-02T11:16:01;97928.53;;;6.37;60.84
27685;BME280;46113;50.130;8.526;2024-03-02T11:18:31;97925.31;;;6.17;62.75
27685;BME280;46113;50.130;8.526;2024-03-02T11:20:59;97924.75;;;6.12;62.18
27685;BME280;46113;50.130;8.526;2024-03-02T11:23:33;97928.53;;;6.22;59.18
27685;BME280;46113;50.130;8.526;2024-03-02T11:26:21;97912.53;;;6.55;56.36
27685;BME280;46113;50.130;8.526;2024-03-02T11:28:48;97918.25;;;6.61;55.95
27685;BME280;46113;50.130;8.526;2024-03-02T11:31:15;97910.59;;;6.58;55.57
27685;BME280;46113;50.130;8.526;2024-03-02T11:33:42;97912.78;;;6.79;55.48
27685;BME280;46113;50.130;8.526;2024-03-02T11:36:09;97902.69;;;6.86;55.85
27685;BME280;46113;50.130;8.526;2024-03-02T11:38:38;97907.41;;;6.81;56.35
27685;BME280;46113;50.130;8.526;2024-03-02T11:41:06;97908.31;;;6.94;55.56
27685;BME280;46113;50.130;8.526;2024-03-02T11:43:39;97905.91;;;6.91;54.61
27685;BME280;46113;50.130;8.526;2024-03-02T11:46:06;97898.66;;;6.95;54.76
27685;BME280;46113;50.130;8.526;2024-03-02T11:48:35;97893.72;;;7.03;55.01
27685;BME280;46113;50.130;8.526;2024-03-02T11:51:04;97893.63;;;7.19;54.35
27685;BME280;46113;50.130;8.526;2024-03-02T11:53:30;97887.28;;;6.94;54.47
27685;BME280;46113;50.130;8.526;2024-03-02T11:56:02;97879.38;;;7.09;54.26
27685;BME280;46113;50.130;8.526;2024-03-02T11:58:29;97881.50;;;7.16;53.58
27685;BME280;46113;50.130;8.526;2024-03-02T12:00:57;97877.41;;;7.25;54.64
27685;BME280;46113;50.130;8.526;2024-03-02T12:03:25;97872.41;;;7.35;53.86
27685;BME280;46113;50.130;8.526;2024-03-02T12:05:53;97874.63;;;7.41;53.70
27685;BME280;46113;50.130;8.526;2024-03-02T12:08:21;97856.72;;;7.47;53.21
27685;BME280;46113;50.130;8.526;2024-03-02T12:11:00;97858.50;;;7.46;53.22
27685;BME280;46113;50.130;8.526;2024-03-02T12:13:31;97864.63;;;7.60;52.32
27685;BME280;46113;50.130;8.526;2024-03-02T12:15:58;97854.72;;;7.50;52.82
27685;BME280;46113;50.130;8.526;2024-03-02T12:18:25;97862.53;;;7.65;52.52
27685;BME280;46113;50.130;8.526;2024-03-02T12:20:53;97856.84;;;7.71;51.95
27685;BME280;46113;50.130;8.526;2024-03-02T12:23:23;97854.97;;;7.60;52.06
27685;BME280;46113;50.130;8.526;2024-03-02T12:25:50;97853.50;;;7.69;51.35
27685;BME280;46113;50.130;8.526;2024-03-02T12:28:17;97852.00;;;7.65;51.72
27685;BME280;46113;50.130;8.526;2024-03-02T12:30:44;97852.44;;;7.71;53.05
27685;BME280;46113;50.130;8.526;2024-03-02T12:33:11;97844.84;;;7.67;52.39
27685;BME280;46113;50.130;8.526;2024-03-02T12:35:38;97841.69;;;7.62;52.92
27685;BME280;46113;50.130;8.526;2024-03-02T12:38:06;97843.38;;;7.50;53.56
27685;BME280;46113;50.130;8.526;2024-03-02T12:40:33;97841.06;;;7.58;53.89
27685;BME280;46113;50.130;8.526;2024-03-02T12:43:00;97836.84;;;7.55;51.32
27685;BME280;46113;50.130;8.526;2024-03-02T12:45:27;97832.19;;;7.59;50.62
27685;BME280;46113;50.130;8.526;2024-03-02T12:47:54;97828.22;;;7.66;50.44
27685;BME280;46113;50.130;8.526;2024-03-02T12:50:21;97826.13;;;7.71;50.57
27685;BME280;46113;50.130;8.526;2024-03-02T12:52:54;97823.69;;;7.68;53.45
27685;BME280;46113;50.130;8.526;2024-03-02T12:55:22;97821.38;;;7.64;54.34
27685;BME280;46113;50.130;8.526;2024-03-02T12:57:51;97820.09;;;7.56;53.61
27685;BME280;46113;50.130;8.526;2024-03-02T13:00:19;97812.19;;;7.56;54.64
27685;BME280;46113;50.130;8.526;2024-03-02T13:02:47;97815.88;;;7.67;51.32
27685;BME280;46113;50.130;8.526;2024-03-02T13:05:18;97805.56;;;7.77;51.60
27685;BME280;46113;50.130;8.526;2024-03-02T13:07:50;97810.13;;;7.75;51.02
27685;BME280;46113;50.130;8.526;2024-03-02T13:10:17;97811.03;;;7.74;49.58
27685;BME280;46113;50.130;8.526;2024-03-02T13:12:44;97813.66;;;7.87;49.51